sensor_id;sensor_type;location;lat;lon;timestamp;P1;durP1;ratioP1;P2;durP2;ratioP2
40745;SDS011;26454;51.164;4.488;2022-08-23T00:01:52;16.77;;;15.50;;
40745;SDS011;26454;51.164;4.488;2022-08-23T00:04:22;20.98;;;15.68;;
40745;SDS011;26454;51.164;4.488;2022-08-23T00:06:49;19.15;;;17.63;;
40745;SDS011;26454;51.164;4.488;2022-08-23T00:09:17;19.05;;;17.42;;
40745;SDS011;26454;51.164;4.488;2022-08-23T00:11:45;18.88;;;17.52;;
40745;SDS011;26454;51.164;4.488;2022-08-23T00:14:14;19.35;;;17.85;;
40745;SDS011;26454;51.164;4.488;2022-08-23T00:16:41;21.10;;;19.40;;
40745;SDS011;26454;51.164;4.488;2022-08-23T00:19:09;20.77;;;19.02;;
40745;SDS011;26454;51.164;4.488;2022-08-23T00:21:36;18.20;;;16.98;;
40745;SDS011;26454;51.164;4.488;2022-08-23T00:24:03;17.95;;;16.77;;
40745;SDS011;26454;51.164;4.488;2022-08-23T00:29:12;19.50;;;18.00;;
40745;SDS011;26454;51.164;4.488;2022-08-23T00:31:38;16.33;;;15.02;;
40745;SDS011;26454;51.164;4.488;2022-08-23T00:34:04;16.27;;;14.80;;
40745;SDS011;26454;51.164;4.488;2022-08-23T00:36:30;14.40;;;13.27;;
40745;SDS011;26454;51.164;4.488;2022-08-23T00:38:56;13.98;;;12.98;;
40745;SDS011;26454;51.164;4.488;2022-08-23T00:41:22;15.63;;;14.20;;
40745;SDS011;26454;51.164;4.488;2022-08-23T00:43:48;14.98;;;13.63;;
40745;SDS011;26454;51.164;4.488;2022-08-23T00:46:38;14.10;;;13.07;;
40745;SDS011;26454;51.164;4.488;2022-08-23T00:51:51;15.88;;;14.38;;
40745;SDS011;26454;51.164;4.488;2022-08-23T00:54:23;17.02;;;15.60;;
40745;SDS011;26454;51.164;4.488;2022-08-23T00:56:52;13.38;;;12.27;;
40745;SDS011;26454;51.164;4.488;2022-08-23T00:59:20;13.40;;;11.95;;
40745;SDS011;26454;51.164;4.488;2022-08-23T01:01:47;13.75;;;12.63;;
40745;SDS011;26454;51.164;4.488;2022-08-23T01:04:14;12.82;;;11.65;;
40745;SDS011;26454;51.164;4.488;2022-08-23T01:06:43;12.63;;;11.52;;
40745;SDS011;26454;51.164;4.488;2022-08-23T01:09:15;13.93;;;12.63;;
40745;SDS011;26454;51.164;4.488;2022-08-23T01:11:44;14.43;;;13.05;;
40745;SDS011;26454;51.164;4.488;2022-08-23T01:14:14;13.23;;;12.23;;
40745;SDS011;26454;51.164;4.488;2022-08-23T01:16:45;15.15;;;13.82;;
40745;SDS011;26454;51.164;4.488;2022-08-23T01:19:17;14.57;;;13.35;;
40745;SDS011;26454;51.164;4.488;2022-08-23T01:21:47;16.90;;;15.40;;
40745;SDS011;26454;51.164;4.488;2022-08-23T01:24:16;16.65;;;15.45;;
40745;SDS011;26454;51.164;4.488;2022-08-23T01:26:42;20.17;;;18.13;;
40745;SDS011;26454;51.164;4.488;2022-08-23T01:29:08;16.88;;;15.50;;
40745;SDS011;26454;51.164;4.488;2022-08-23T01:31:35;18.65;;;16.52;;
40745;SDS011;26454;51.164;4.488;2022-08-23T01:34:03;19.65;;;14.52;;
40745;SDS011;26454;51.164;4.488;2022-08-23T01:36:30;13.60;;;12.40;;
40745;SDS011;26454;51.164;4.488;2022-08-23T01:38:57;15.60;;;13.98;;
40745;SDS011;26454;51.164;4.488;2022-08-23T01:41:23;15.30;;;14.07;;
40745;SDS011;26454;51.164;4.488;2022-08-23T01:43:50;18.67;;;14.73;;
40745;SDS011;26454;51.164;4.488;2022-08-23T01:46:18;15.07;;;13.63;;
40745;SDS011;26454;51.164;4.488;2022-08-23T01:48:44;15.00;;;13.73;;
40745;SDS011;26454;51.164;4.488;2022-08-23T01:51:12;15.43;;;13.77;;
40745;SDS011;26454;51.164;4.488;2022-08-23T01:53:40;13.73;;;12.50;;
40745;SDS011;26454;51.164;4.488;2022-08-23T01:56:06;16.45;;;14.20;;
40745;SDS011;26454;51.164;4.488;2022-08-23T01:58:33;15.00;;;13.45;;
40745;SDS011;26454;51.164;4.488;2022-08-23T02:00:59;13.57;;;12.48;;
40745;SDS011;26454;51.164;4.488;2022-08-23T02:03:26;15.05;;;13.98;;
40745;SDS011;26454;51.164;4.488;2022-08-23T02:05:53;14.68;;;13.20;;
40745;SDS011;26454;51.164;4.488;2022-08-23T02:08:20;15.38;;;14.18;;
40745;SDS011;26454;51.164;4.488;2022-08-23T02:11:08;18.73;;;12.93;;
40745;SDS011;26454;51.164;4.488;2022-08-23T02:13:34;16.77;;;14.93;;
40745;SDS011;26454;51.164;4.488;2022-08-23T02:16:03;16.08;;;14.80;;
40745;SDS011;26454;51.164;4.488;2022-08-23T02:18:30;16.55;;;15.10;;
40745;SDS011;26454;51.164;4.488;2022-08-23T02:20:56;16.40;;;14.63;;
40745;SDS011;26454;51.164;4.488;2022-08-23T02:23:22;17.58;;;15.57;;
40745;SDS011;26454;51.164;4.488;2022-08-23T02:25:49;18.98;;;17.42;;
40745;SDS011;26454;51.164;4.488;2022-08-23T02:28:17;15.38;;;13.82;;
40745;SDS011;26454;51.164;4.488;2022-08-23T02:30:44;19.92;;;15.77;;
40745;SDS011;26454;51.164;4.488;2022-08-23T02:33:10;17.65;;;15.90;;
40745;SDS011;26454;51.164;4.488;2022-08-23T02:35:37;16.85;;;15.10;;
40745;SDS011;26454;51.164;4.488;2022-08-23T02:38:04;22.20;;;17.95;;
40745;SDS011;26454;51.164;4.488;2022-08-23T02:40:30;21.90;;;19.23;;
40745;SDS011;26454;51.164;4.488;2022-08-23T02:42:56;21.70;;;19.45;;
40745;SDS011;26454;51.164;4.488;2022-08-23T02:45:23;20.02;;;18.00;;
40745;SDS011;26454;51.164;4.488;2022-08-23T02:47:50;18.80;;;17.20;;
40745;SDS011;26454;51.164;4.488;2022-08-23T02:50:17;23.77;;;20.80;;
40745;SDS011;26454;51.164;4.488;2022-08-23T02:52:43;26.00;;;21.15;;
40745;SDS011;26454;51.164;4.488;2022-08-23T02:55:10;21.27;;;19.02;;
40745;SDS011;26454;51.164;4.488;2022-08-23T02:57:36;20.75;;;19.05;;
40745;SDS011;26454;51.164;4.488;2022-08-23T03:00:04;28.40;;;25.48;;
40745;SDS011;26454;51.164;4.488;2022-08-23T03:02:32;29.08;;;24.38;;
40745;SDS011;26454;51.164;4.488;2022-08-23T03:04:58;28.30;;;23.85;;
40745;SDS011;26454;51.164;4.488;2022-08-23T03:07:24;26.90;;;24.00;;
40745;SDS011;26454;51.164;4.488;2022-08-23T03:09:50;25.60;;;23.30;;
40745;SDS011;26454;51.164;4.488;2022-08-23T03:12:17;27.63;;;24.67;;
40745;SDS011;26454;51.164;4.488;2022-08-23T03:14:43;24.63;;;22.05;;
40745;SDS011;26454;51.164;4.488;2022-08-23T03:17:09;23.98;;;21.10;;
40745;SDS011;26454;51.164;4.488;2022-08-23T03:19:35;25.08;;;20.88;;
40745;SDS011;26454;51.164;4.488;2022-08-23T03:22:02;29.60;;;24.67;;
40745;SDS011;26454;51.164;4.488;2022-08-23T03:24:28;31.52;;;28.13;;
40745;SDS011;26454;51.164;4.488;2022-08-23T03:26:54;31.67;;;26.65;;
40745;SDS011;26454;51.164;4.488;2022-08-23T03:29:20;33.67;;;30.17;;
40745;SDS011;26454;51.164;4.488;2022-08-23T03:31:46;37.55;;;32.75;;
40745;SDS011;26454;51.164;4.488;2022-08-23T03:34:12;32.92;;;30.05;;
40745;SDS011;26454;51.164;4.488;2022-08-23T03:36:38;32.85;;;29.50;;
40745;SDS011;26454;51.164;4.488;2022-08-23T03:39:05;36.65;;;32.13;;
40745;SDS011;26454;51.164;4.488;2022-08-23T03:41:31;37.72;;;32.40;;
40745;SDS011;26454;51.164;4.488;2022-08-23T03:43:57;38.13;;;34.28;;
40745;SDS011;26454;51.164;4.488;2022-08-23T03:46:23;36.75;;;32.88;;
40745;SDS011;26454;51.164;4.488;2022-08-23T03:48:55;38.00;;;34.47;;
40745;SDS011;26454;51.164;4.488;2022-08-23T03:51:23;37.95;;;34.20;;
40745;SDS011;26454;51.164;4.488;2022-08-23T03:53:49;38.30;;;34.30;;
40745;SDS011;26454;51.164;4.488;2022-08-23T03:56:24;36.78;;;32.10;;
40745;SDS011;26454;51.164;4.488;2022-08-23T03:58:53;38.75;;;34.83;;
40745;SDS011;26454;51.164;4.488;2022-08-23T04:01:20;37.25;;;33.85;;
40745;SDS011;26454;51.164;4.488;2022-08-23T04:03:48;37.72;;;34.20;;
40745;SDS011;26454;51.164;4.488;2022-08-23T04:06:15;37.13;;;33.40;;
40745;SDS011;26454;51.164;4.488;2022-08-23T04:08:42;35.83;;;32.15;;
40745;SDS011;26454;51.164;4.488;2022-08-23T04:11:08;36.00;;;30.67;;
40745;SDS011;26454;51.164;4.488;2022-08-23T04:13:36;35.00;;;31.67;;
40745;SDS011;26454;51.164;4.488;2022-08-23T04:16:03;35.92;;;32.25;;
40745;SDS011;26454;51.164;4.488;2022-08-23T04:18:29;38.55;;;32.00;;
40745;SDS011;26454;51.164;4.488;2022-08-23T04:20:57;39.25;;;32.55;;
40745;SDS011;26454;51.164;4.488;2022-08-23T04:23:24;33.88;;;30.60;;
40745;SDS011;26454;51.164;4.488;2022-08-23T04:25:56;35.20;;;31.38;;
40745;SDS011;26454;51.164;4.488;2022-08-23T04:28:25;33.80;;;30.38;;
40745;SDS011;26454;51.164;4.488;2022-08-23T04:31:10;33.28;;;29.92;;
40745;SDS011;26454;51.164;4.488;2022-08-23T04:33:37;31.42;;;28.13;;
40745;SDS011;26454;51.164;4.488;2022-08-23T04:36:03;37.45;;;31.27;;
40745;SDS011;26454;51.164;4.488;2022-08-23T04:38:29;35.03;;;31.33;;
40745;SDS011;26454;51.164;4.488;2022-08-23T04:40:59;36.22;;;30.17;;
40745;SDS011;26454;51.164;4.488;2022-08-23T04:43:45;33.58;;;30.38;;
40745;SDS011;26454;51.164;4.488;2022-08-23T04:46:11;31.00;;;28.30;;
40745;SDS011;26454;51.164;4.488;2022-08-23T04:48:39;28.85;;;24.83;;
40745;SDS011;26454;51.164;4.488;2022-08-23T04:51:06;28.35;;;25.30;;
40745;SDS011;26454;51.164;4.488;2022-08-23T04:53:32;28.33;;;24.00;;
40745;SDS011;26454;51.164;4.488;2022-08-23T04:55:59;27.90;;;23.88;;
40745;SDS011;26454;51.164;4.488;2022-08-23T04:58:26;30.95;;;24.92;;
40745;SDS011;26454;51.164;4.488;2022-08-23T05:00:56;29.80;;;23.60;;
40745;SDS011;26454;51.164;4.488;2022-08-23T05:03:24;26.83;;;23.42;;
40745;SDS011;26454;51.164;4.488;2022-08-23T05:05:52;28.95;;;23.15;;
40745;SDS011;26454;51.164;4.488;2022-08-23T05:08:18;29.33;;;24.92;;
40745;SDS011;26454;51.164;4.488;2022-08-23T05:10:47;27.77;;;22.73;;
40745;SDS011;26454;51.164;4.488;2022-08-23T05:13:13;32.75;;;22.67;;
40745;SDS011;26454;51.164;4.488;2022-08-23T05:15:39;25.83;;;23.17;;
40745;SDS011;26454;51.164;4.488;2022-08-23T05:18:06;29.05;;;21.63;;
40745;SDS011;26454;51.164;4.488;2022-08-23T05:20:32;25.98;;;23.33;;
40745;SDS011;26454;51.164;4.488;2022-08-23T05:22:59;30.30;;;22.30;;
40745;SDS011;26454;51.164;4.488;2022-08-23T05:25:26;28.33;;;22.75;;
40745;SDS011;26454;51.164;4.488;2022-08-23T05:28:14;25.30;;;22.08;;
40745;SDS011;26454;51.164;4.488;2022-08-23T05:30:40;27.35;;;22.05;;
40745;SDS011;26454;51.164;4.488;2022-08-23T05:33:06;24.38;;;21.90;;
40745;SDS011;26454;51.164;4.488;2022-08-23T05:35:33;24.25;;;21.67;;
40745;SDS011;26454;51.164;4.488;2022-08-23T05:38:00;31.67;;;22.00;;
40745;SDS011;26454;51.164;4.488;2022-08-23T05:40:26;31.40;;;23.27;;
40745;SDS011;26454;51.164;4.488;2022-08-23T05:42:53;28.65;;;22.15;;
40745;SDS011;26454;51.164;4.488;2022-08-23T05:45:19;25.35;;;21.05;;
40745;SDS011;26454;51.164;4.488;2022-08-23T05:47:45;30.90;;;21.40;;
40745;SDS011;26454;51.164;4.488;2022-08-23T05:50:12;32.45;;;21.50;;
40745;SDS011;26454;51.164;4.488;2022-08-23T05:52:38;24.20;;;19.88;;
40745;SDS011;26454;51.164;4.488;2022-08-23T05:55:05;32.92;;;21.33;;
40745;SDS011;26454;51.164;4.488;2022-08-23T05:57:36;28.42;;;22.58;;
40745;SDS011;26454;51.164;4.488;2022-08-23T06:00:07;27.40;;;20.80;;
40745;SDS011;26454;51.164;4.488;2022-08-23T06:02:36;26.95;;;21.52;;
40745;SDS011;26454;51.164;4.488;2022-08-23T06:05:02;24.17;;;19.75;;
40745;SDS011;26454;51.164;4.488;2022-08-23T06:07:29;22.15;;;19.98;;
40745;SDS011;26454;51.164;4.488;2022-08-23T06:09:55;29.35;;;26.20;;
40745;SDS011;26454;51.164;4.488;2022-08-23T06:12:21;27.48;;;24.70;;
40745;SDS011;26454;51.164;4.488;2022-08-23T06:14:48;28.48;;;24.48;;
40745;SDS011;26454;51.164;4.488;2022-08-23T06:17:13;26.08;;;22.83;;
40745;SDS011;26454;51.164;4.488;2022-08-23T06:19:39;28.60;;;25.35;;
40745;SDS011;26454;51.164;4.488;2022-08-23T06:22:06;30.10;;;26.30;;
40745;SDS011;26454;51.164;4.488;2022-08-23T06:24:32;28.23;;;25.27;;
40745;SDS011;26454;51.164;4.488;2022-08-23T06:27:01;28.48;;;22.95;;
40745;SDS011;26454;51.164;4.488;2022-08-23T06:29:27;26.67;;;23.23;;
40745;SDS011;26454;51.164;4.488;2022-08-23T06:31:54;27.45;;;24.58;;
40745;SDS011;26454;51.164;4.488;2022-08-23T06:34:24;24.50;;;22.20;;
40745;SDS011;26454;51.164;4.488;2022-08-23T06:36:52;34.10;;;21.33;;
40745;SDS011;26454;51.164;4.488;2022-08-23T06:39:19;25.42;;;22.58;;
40745;SDS011;26454;51.164;4.488;2022-08-23T06:41:46;25.67;;;23.15;;
40745;SDS011;26454;51.164;4.488;2022-08-23T06:44:13;25.75;;;21.77;;
40745;SDS011;26454;51.164;4.488;2022-08-23T06:46:39;28.98;;;24.08;;
40745;SDS011;26454;51.164;4.488;2022-08-23T06:49:06;28.42;;;25.58;;
40745;SDS011;26454;51.164;4.488;2022-08-23T06:51:35;27.05;;;24.23;;
40745;SDS011;26454;51.164;4.488;2022-08-23T06:54:03;29.27;;;24.92;;
40745;SDS011;26454;51.164;4.488;2022-08-23T06:56:29;32.58;;;27.73;;
40745;SDS011;26454;51.164;4.488;2022-08-23T06:58:56;26.15;;;23.35;;
40745;SDS011;26454;51.164;4.488;2022-08-23T07:01:31;27.20;;;21.17;;
40745;SDS011;26454;51.164;4.488;2022-08-23T07:03:58;25.65;;;21.23;;
40745;SDS011;26454;51.164;4.488;2022-08-23T07:06:25;24.33;;;19.25;;
40745;SDS011;26454;51.164;4.488;2022-08-23T07:08:52;27.88;;;17.02;;
40745;SDS011;26454;51.164;4.488;2022-08-23T07:11:19;19.35;;;16.02;;
40745;SDS011;26454;51.164;4.488;2022-08-23T07:13:45;24.35;;;17.48;;
40745;SDS011;26454;51.164;4.488;2022-08-23T07:16:12;22.73;;;17.10;;
40745;SDS011;26454;51.164;4.488;2022-08-23T07:18:39;23.25;;;18.00;;
40745;SDS011;26454;51.164;4.488;2022-08-23T07:21:05;19.98;;;16.77;;
40745;SDS011;26454;51.164;4.488;2022-08-23T07:23:33;19.23;;;14.48;;
40745;SDS011;26454;51.164;4.488;2022-08-23T07:26:01;25.55;;;13.88;;
40745;SDS011;26454;51.164;4.488;2022-08-23T07:28:28;21.80;;;14.48;;
40745;SDS011;26454;51.164;4.488;2022-08-23T07:30:59;20.52;;;15.77;;
40745;SDS011;26454;51.164;4.488;2022-08-23T07:33:33;17.83;;;14.00;;
40745;SDS011;26454;51.164;4.488;2022-08-23T07:35:59;16.65;;;14.93;;
40745;SDS011;26454;51.164;4.488;2022-08-23T07:38:28;25.30;;;13.68;;
40745;SDS011;26454;51.164;4.488;2022-08-23T07:40:54;14.40;;;10.77;;
40745;SDS011;26454;51.164;4.488;2022-08-23T07:43:28;14.43;;;7.55;;
40745;SDS011;26454;51.164;4.488;2022-08-23T07:45:54;11.88;;;7.10;;
40745;SDS011;26454;51.164;4.488;2022-08-23T07:48:23;9.88;;;7.47;;
40745;SDS011;26454;51.164;4.488;2022-08-23T07:50:50;11.20;;;6.50;;
40745;SDS011;26454;51.164;4.488;2022-08-23T07:53:17;14.43;;;6.65;;
40745;SDS011;26454;51.164;4.488;2022-08-23T07:55:43;13.18;;;6.82;;
40745;SDS011;26454;51.164;4.488;2022-08-23T07:58:09;9.57;;;5.82;;
40745;SDS011;26454;51.164;4.488;2022-08-23T08:00:35;11.30;;;5.63;;
40745;SDS011;26454;51.164;4.488;2022-08-23T08:03:01;9.98;;;6.80;;
40745;SDS011;26454;51.164;4.488;2022-08-23T08:05:27;15.02;;;6.47;;
40745;SDS011;26454;51.164;4.488;2022-08-23T08:07:53;11.63;;;6.30;;
40745;SDS011;26454;51.164;4.488;2022-08-23T08:10:19;15.00;;;6.75;;
40745;SDS011;26454;51.164;4.488;2022-08-23T08:12:45;12.52;;;6.03;;
40745;SDS011;26454;51.164;4.488;2022-08-23T08:15:11;11.20;;;6.40;;
40745;SDS011;26454;51.164;4.488;2022-08-23T08:17:39;12.35;;;5.10;;
40745;SDS011;26454;51.164;4.488;2022-08-23T08:20:05;9.35;;;4.30;;
40745;SDS011;26454;51.164;4.488;2022-08-23T08:22:32;7.15;;;3.88;;
40745;SDS011;26454;51.164;4.488;2022-08-23T08:24:58;8.98;;;4.50;;
40745;SDS011;26454;51.164;4.488;2022-08-23T08:27:25;8.38;;;4.45;;
40745;SDS011;26454;51.164;4.488;2022-08-23T08:29:51;12.68;;;4.43;;
40745;SDS011;26454;51.164;4.488;2022-08-23T08:32:19;6.40;;;4.35;;
40745;SDS011;26454;51.164;4.488;2022-08-23T08:34:45;8.95;;;3.85;;
40745;SDS011;26454;51.164;4.488;2022-08-23T08:37:11;8.18;;;4.65;;
40745;SDS011;26454;51.164;4.488;2022-08-23T08:39:37;6.97;;;4.88;;
40745;SDS011;26454;51.164;4.488;2022-08-23T08:42:29;7.75;;;4.00;;
40745;SDS011;26454;51.164;4.488;2022-08-23T08:44:59;5.35;;;4.22;;
40745;SDS011;26454;51.164;4.488;2022-08-23T08:47:34;6.95;;;4.22;;
40745;SDS011;26454;51.164;4.488;2022-08-23T08:52:52;11.57;;;4.18;;
40745;SDS011;26454;51.164;4.488;2022-08-23T08:55:23;9.85;;;3.88;;
40745;SDS011;26454;51.164;4.488;2022-08-23T08:57:52;8.68;;;4.72;;
40745;SDS011;26454;51.164;4.488;2022-08-23T09:00:20;7.35;;;4.68;;
40745;SDS011;26454;51.164;4.488;2022-08-23T09:02:47;5.25;;;4.60;;
40745;SDS011;26454;51.164;4.488;2022-08-23T09:05:19;8.27;;;4.57;;
40745;SDS011;26454;51.164;4.488;2022-08-23T09:07:52;8.52;;;3.33;;
40745;SDS011;26454;51.164;4.488;2022-08-23T09:10:33;10.50;;;2.63;;
40745;SDS011;26454;51.164;4.488;2022-08-23T09:13:27;3.67;;;2.60;;
40745;SDS011;26454;51.164;4.488;2022-08-23T09:16:04;6.68;;;2.10;;
40745;SDS011;26454;51.164;4.488;2022-08-23T09:18:35;6.78;;;3.25;;
40745;SDS011;26454;51.164;4.488;2022-08-23T09:21:02;4.18;;;2.60;;
40745;SDS011;26454;51.164;4.488;2022-08-23T09:23:35;7.28;;;2.97;;
40745;SDS011;26454;51.164;4.488;2022-08-23T09:26:04;7.13;;;2.78;;
40745;SDS011;26454;51.164;4.488;2022-08-23T09:28:40;3.47;;;1.70;;
40745;SDS011;26454;51.164;4.488;2022-08-23T09:31:12;3.63;;;2.03;;
40745;SDS011;26454;51.164;4.488;2022-08-23T09:34:01;6.88;;;2.30;;
40745;SDS011;26454;51.164;4.488;2022-08-23T09:36:30;6.05;;;1.52;;
40745;SDS011;26454;51.164;4.488;2022-08-23T09:39:00;4.78;;;1.45;;
40745;SDS011;26454;51.164;4.488;2022-08-23T09:41:31;7.43;;;2.22;;
40745;SDS011;26454;51.164;4.488;2022-08-23T09:43:57;5.28;;;2.28;;
40745;SDS011;26454;51.164;4.488;2022-08-23T09:46:27;3.20;;;1.52;;
40745;SDS011;26454;51.164;4.488;2022-08-23T09:48:54;5.53;;;2.30;;
40745;SDS011;26454;51.164;4.488;2022-08-23T09:51:25;7.13;;;1.77;;
40745;SDS011;26454;51.164;4.488;2022-08-23T09:54:01;4.05;;;1.73;;
40745;SDS011;26454;51.164;4.488;2022-08-23T09:56:28;3.78;;;1.73;;
40745;SDS011;26454;51.164;4.488;2022-08-23T09:58:55;2.58;;;2.38;;
40745;SDS011;26454;51.164;4.488;2022-08-23T10:01:23;2.60;;;2.10;;
40745;SDS011;26454;51.164;4.488;2022-08-23T10:06:35;2.88;;;1.85;;
40745;SDS011;26454;51.164;4.488;2022-08-23T10:09:02;1.75;;;1.65;;
40745;SDS011;26454;51.164;4.488;2022-08-23T10:11:30;2.75;;;1.75;;
40745;SDS011;26454;51.164;4.488;2022-08-23T10:13:57;3.35;;;1.67;;
40745;SDS011;26454;51.164;4.488;2022-08-23T10:16:30;7.20;;;2.58;;
40745;SDS011;26454;51.164;4.488;2022-08-23T10:19:01;3.33;;;2.03;;
40745;SDS011;26454;51.164;4.488;2022-08-23T10:21:34;9.25;;;2.35;;
40745;SDS011;26454;51.164;4.488;2022-08-23T10:24:08;4.72;;;2.10;;
40745;SDS011;26454;51.164;4.488;2022-08-23T10:26:45;3.78;;;1.85;;
40745;SDS011;26454;51.164;4.488;2022-08-23T10:34:49;5.72;;;1.63;;
40745;SDS011;26454;51.164;4.488;2022-08-23T10:37:33;2.90;;;1.48;;
40745;SDS011;26454;51.164;4.488;2022-08-23T10:40:16;3.42;;;1.58;;
40745;SDS011;26454;51.164;4.488;2022-08-23T10:42:54;3.45;;;1.52;;
40745;SDS011;26454;51.164;4.488;2022-08-23T10:45:27;3.70;;;1.15;;
40745;SDS011;26454;51.164;4.488;2022-08-23T10:48:00;2.60;;;1.30;;
40745;SDS011;26454;51.164;4.488;2022-08-23T10:50:29;1.30;;;1.20;;
40745;SDS011;26454;51.164;4.488;2022-08-23T10:53:01;8.18;;;1.42;;
40745;SDS011;26454;51.164;4.488;2022-08-23T10:55:32;3.70;;;1.25;;
40745;SDS011;26454;51.164;4.488;2022-08-23T10:58:20;6.05;;;1.50;;
40745;SDS011;26454;51.164;4.488;2022-08-23T11:00:47;4.82;;;1.58;;
40745;SDS011;26454;51.164;4.488;2022-08-23T11:03:20;2.40;;;1.35;;
40745;SDS011;26454;51.164;4.488;2022-08-23T11:08:34;2.10;;;1.50;;
40745;SDS011;26454;51.164;4.488;2022-08-23T11:11:30;4.07;;;1.73;;
40745;SDS011;26454;51.164;4.488;2022-08-23T11:13:57;4.57;;;1.33;;
40745;SDS011;26454;51.164;4.488;2022-08-23T11:16:25;5.38;;;1.88;;
40745;SDS011;26454;51.164;4.488;2022-08-23T11:18:56;1.48;;;1.25;;
40745;SDS011;26454;51.164;4.488;2022-08-23T11:21:40;4.70;;;1.05;;
40745;SDS011;26454;51.164;4.488;2022-08-23T11:24:27;2.15;;;1.23;;
40745;SDS011;26454;51.164;4.488;2022-08-23T11:27:03;3.50;;;1.75;;
40745;SDS011;26454;51.164;4.488;2022-08-23T11:29:30;3.60;;;1.08;;
40745;SDS011;26454;51.164;4.488;2022-08-23T11:37:24;1.58;;;1.05;;
40745;SDS011;26454;51.164;4.488;2022-08-23T11:40:00;3.45;;;1.70;;
40745;SDS011;26454;51.164;4.488;2022-08-23T11:42:46;3.42;;;1.45;;
40745;SDS011;26454;51.164;4.488;2022-08-23T11:45:29;2.65;;;2.45;;
40745;SDS011;26454;51.164;4.488;2022-08-23T11:51:10;3.50;;;1.83;;
40745;SDS011;26454;51.164;4.488;2022-08-23T11:53:28;2.45;;;2.22;;
40745;SDS011;26454;51.164;4.488;2022-08-23T12:01:14;3.15;;;1.40;;
40745;SDS011;26454;51.164;4.488;2022-08-23T12:16:55;4.30;;;1.52;;
40745;SDS011;26454;51.164;4.488;2022-08-23T12:19:27;2.55;;;1.20;;
40745;SDS011;26454;51.164;4.488;2022-08-23T12:22:03;2.38;;;1.05;;
40745;SDS011;26454;51.164;4.488;2022-08-23T12:24:39;3.08;;;1.35;;
40745;SDS011;26454;51.164;4.488;2022-08-23T12:27:48;3.13;;;1.35;;
40745;SDS011;26454;51.164;4.488;2022-08-23T12:30:10;3.20;;;1.02;;
40745;SDS011;26454;51.164;4.488;2022-08-23T12:32:43;3.08;;;0.68;;
40745;SDS011;26454;51.164;4.488;2022-08-23T12:35:28;3.30;;;0.77;;
40745;SDS011;26454;51.164;4.488;2022-08-23T12:38:06;1.42;;;0.82;;
40745;SDS011;26454;51.164;4.488;2022-08-23T12:40:40;1.38;;;0.90;;
40745;SDS011;26454;51.164;4.488;2022-08-23T12:43:14;4.03;;;0.80;;
40745;SDS011;26454;51.164;4.488;2022-08-23T12:45:43;2.75;;;1.20;;
40745;SDS011;26454;51.164;4.488;2022-08-23T12:48:11;2.50;;;1.00;;
40745;SDS011;26454;51.164;4.488;2022-08-23T12:50:39;0.73;;;0.65;;
40745;SDS011;26454;51.164;4.488;2022-08-23T12:53:08;4.35;;;0.88;;
40745;SDS011;26454;51.164;4.488;2022-08-23T12:55:37;3.78;;;0.90;;
40745;SDS011;26454;51.164;4.488;2022-08-23T12:58:04;3.22;;;1.10;;
40745;SDS011;26454;51.164;4.488;2022-08-23T13:00:35;1.15;;;1.00;;
40745;SDS011;26454;51.164;4.488;2022-08-23T13:03:05;1.52;;;0.90;;
40745;SDS011;26454;51.164;4.488;2022-08-23T13:05:38;1.70;;;0.80;;
40745;SDS011;26454;51.164;4.488;2022-08-23T13:08:07;0.60;;;0.60;;
40745;SDS011;26454;51.164;4.488;2022-08-23T13:10:34;1.63;;;0.70;;
40745;SDS011;26454;51.164;4.488;2022-08-23T13:13:01;1.27;;;0.93;;
40745;SDS011;26454;51.164;4.488;2022-08-23T13:18:06;2.85;;;0.50;;
40745;SDS011;26454;51.164;4.488;2022-08-23T13:20:32;1.45;;;0.80;;
40745;SDS011;26454;51.164;4.488;2022-08-23T13:22:59;2.20;;;0.90;;
40745;SDS011;26454;51.164;4.488;2022-08-23T13:25:28;1.73;;;0.93;;
40745;SDS011;26454;51.164;4.488;2022-08-23T13:27:55;0.70;;;0.70;;
40745;SDS011;26454;51.164;4.488;2022-08-23T13:30:24;1.20;;;1.10;;
40745;SDS011;26454;51.164;4.488;2022-08-23T13:32:51;2.90;;;1.00;;
40745;SDS011;26454;51.164;4.488;2022-08-23T13:38:54;3.22;;;0.93;;
40745;SDS011;26454;51.164;4.488;2022-08-23T13:40:58;1.75;;;0.80;;
40745;SDS011;26454;51.164;4.488;2022-08-23T13:43:28;1.00;;;0.63;;
40745;SDS011;26454;51.164;4.488;2022-08-23T13:45:56;3.72;;;0.73;;
40745;SDS011;26454;51.164;4.488;2022-08-23T13:48:24;1.92;;;1.20;;
40745;SDS011;26454;51.164;4.488;2022-08-23T13:50:50;2.28;;;1.20;;
40745;SDS011;26454;51.164;4.488;2022-08-23T13:53:17;1.13;;;1.02;;
40745;SDS011;26454;51.164;4.488;2022-08-23T13:55:45;2.67;;;1.10;;
40745;SDS011;26454;51.164;4.488;2022-08-23T13:58:13;1.00;;;0.98;;
40745;SDS011;26454;51.164;4.488;2022-08-23T14:00:41;2.97;;;0.70;;
40745;SDS011;26454;51.164;4.488;2022-08-23T14:03:07;0.93;;;0.60;;
40745;SDS011;26454;51.164;4.488;2022-08-23T14:05:33;0.60;;;0.60;;
40745;SDS011;26454;51.164;4.488;2022-08-23T14:07:59;3.22;;;0.98;;
40745;SDS011;26454;51.164;4.488;2022-08-23T14:10:25;1.52;;;0.80;;
40745;SDS011;26454;51.164;4.488;2022-08-23T14:12:52;1.50;;;1.20;;
40745;SDS011;26454;51.164;4.488;2022-08-23T14:15:19;1.10;;;1.00;;
40745;SDS011;26454;51.164;4.488;2022-08-23T14:17:46;1.55;;;0.75;;
40745;SDS011;26454;51.164;4.488;2022-08-23T14:20:14;1.15;;;0.90;;
40745;SDS011;26454;51.164;4.488;2022-08-23T14:22:41;1.17;;;0.90;;
40745;SDS011;26454;51.164;4.488;2022-08-23T14:25:07;4.30;;;1.00;;
40745;SDS011;26454;51.164;4.488;2022-08-23T14:27:34;0.80;;;0.80;;
40745;SDS011;26454;51.164;4.488;2022-08-23T14:30:02;1.00;;;0.85;;
40745;SDS011;26454;51.164;4.488;2022-08-23T14:32:29;2.95;;;1.40;;
40745;SDS011;26454;51.164;4.488;2022-08-23T14:34:56;1.90;;;1.27;;
40745;SDS011;26454;51.164;4.488;2022-08-23T14:37:22;0.90;;;0.90;;
40745;SDS011;26454;51.164;4.488;2022-08-23T14:39:48;1.08;;;0.98;;
40745;SDS011;26454;51.164;4.488;2022-08-23T14:42:15;2.28;;;1.10;;
40745;SDS011;26454;51.164;4.488;2022-08-23T14:44:43;2.10;;;1.13;;
40745;SDS011;26454;51.164;4.488;2022-08-23T14:47:09;3.65;;;0.90;;
40745;SDS011;26454;51.164;4.488;2022-08-23T14:49:36;1.23;;;1.15;;
40745;SDS011;26454;51.164;4.488;2022-08-23T14:52:04;1.25;;;1.00;;
40745;SDS011;26454;51.164;4.488;2022-08-23T14:54:31;0.75;;;0.75;;
40745;SDS011;26454;51.164;4.488;2022-08-23T14:56:57;1.17;;;1.02;;
40745;SDS011;26454;51.164;4.488;2022-08-23T14:59:23;3.85;;;1.02;;
40745;SDS011;26454;51.164;4.488;2022-08-23T15:01:51;1.13;;;1.02;;
40745;SDS011;26454;51.164;4.488;2022-08-23T15:04:20;0.85;;;0.85;;
40745;SDS011;26454;51.164;4.488;2022-08-23T15:06:47;0.70;;;0.70;;
40745;SDS011;26454;51.164;4.488;2022-08-23T15:09:16;0.77;;;0.70;;
40745;SDS011;26454;51.164;4.488;2022-08-23T15:11:46;3.10;;;0.57;;
40745;SDS011;26454;51.164;4.488;2022-08-23T15:14:13;0.77;;;0.77;;
40745;SDS011;26454;51.164;4.488;2022-08-23T15:16:44;1.75;;;1.20;;
40745;SDS011;26454;51.164;4.488;2022-08-23T15:19:10;1.55;;;0.88;;
40745;SDS011;26454;51.164;4.488;2022-08-23T15:21:42;1.65;;;1.30;;
40745;SDS011;26454;51.164;4.488;2022-08-23T15:24:08;1.30;;;1.20;;
40745;SDS011;26454;51.164;4.488;2022-08-23T15:26:34;1.77;;;1.10;;
40745;SDS011;26454;51.164;4.488;2022-08-23T15:29:00;2.67;;;1.02;;
40745;SDS011;26454;51.164;4.488;2022-08-23T15:31:26;2.15;;;1.40;;
40745;SDS011;26454;51.164;4.488;2022-08-23T15:33:53;1.17;;;1.13;;
40745;SDS011;26454;51.164;4.488;2022-08-23T15:36:20;1.10;;;1.00;;